createdAt,value
2019-01-04T00:00:46.019Z,25.90
2019-01-04T00:03:14.428Z,26.07
2019-01-04T00:05:42.921Z,27.50
2019-01-04T00:08:11.343Z,27.23
2019-01-04T00:10:39.769Z,27.47
2019-01-04T00:13:08.178Z,28.17
2019-01-04T00:15:36.673Z,25.90
2019-01-04T00:18:05.095Z,26.17
2019-01-04T00:20:33.539Z,28.27
2019-01-04T00:23:01.972Z,27.73
2019-01-04T00:25:30.410Z,26.77
2019-01-04T00:27:58.838Z,28.70
2019-01-04T00:30:27.256Z,28.20
2019-01-04T00:32:55.683Z,30.13
2019-01-04T00:35:24.114Z,28.13
2019-01-04T00:37:52.548Z,26.30
2019-01-04T00:40:20.957Z,26.90
2019-01-04T00:42:49.399Z,28.00
2019-01-04T00:45:17.839Z,27.93
2019-01-04T00:47:46.253Z,28.60
2019-01-04T00:50:14.664Z,27.43
2019-01-04T00:52:43.102Z,26.53
2019-01-04T00:55:29.369Z,27.57
2019-01-04T00:58:06.773Z,27.20
2019-01-04T01:00:58.116Z,25.90
2019-01-04T01:03:52.416Z,29.57
2019-01-04T01:06:58.051Z,27.30
2019-01-04T01:09:51.963Z,27.00
2019-01-04T01:12:57.733Z,28.10
2019-01-04T01:15:44.399Z,27.80
2019-01-04T01:18:44.494Z,28.33
2019-01-04T01:21:44.320Z,25.80
2019-01-04T01:24:43.234Z,27.57
2019-01-04T01:27:26.778Z,27.60
2019-01-04T01:30:31.847Z,27.93
2019-01-04T01:33:09.215Z,24.83
2019-01-04T01:36:08.972Z,25.83
2019-01-04T01:39:13.735Z,26.90
2019-01-04T01:41:59.649Z,26.83
2019-01-04T01:44:50.527Z,25.87
2019-01-04T01:47:22.032Z,27.40
2019-01-04T01:50:15.812Z,27.67
2019-01-04T01:52:44.256Z,25.40
2019-01-04T01:55:12.690Z,25.40
2019-01-04T01:57:41.101Z,24.20
2019-01-04T02:00:09.948Z,26.47
2019-01-04T02:02:38.392Z,25.40
2019-01-04T02:05:06.882Z,26.00
2019-01-04T02:07:35.305Z,26.77
2019-01-04T02:10:04.270Z,24.37
2019-01-04T02:12:32.706Z,25.50
2019-01-04T02:15:01.127Z,25.47
2019-01-04T02:17:29.549Z,25.50
2019-01-04T02:19:57.957Z,24.97
2019-01-04T02:22:26.407Z,25.47
2019-01-04T02:24:54.805Z,26.40
2019-01-04T02:27:23.233Z,26.83
2019-01-04T02:29:51.662Z,24.60
2019-01-04T02:32:20.084Z,27.30
2019-01-04T02:34:48.506Z,27.03
2019-01-04T02:37:16.939Z,26.50
2019-01-04T02:39:45.349Z,27.70
2019-01-04T02:42:13.790Z,25.97
2019-01-04T02:44:42.229Z,27.80
2019-01-04T02:47:10.671Z,27.40
2019-01-04T02:49:39.099Z,27.60
2019-01-04T02:52:07.526Z,28.97
2019-01-04T02:54:35.933Z,28.03
2019-01-04T02:57:04.379Z,27.20
2019-01-04T02:59:32.789Z,27.30
2019-01-04T03:02:01.216Z,27.13
2019-01-04T03:04:29.635Z,29.63
2019-01-04T03:06:58.061Z,28.90
2019-01-04T03:09:45.820Z,30.50
2019-01-04T03:12:14.246Z,28.00
2019-01-04T03:14:42.672Z,31.17
2019-01-04T03:17:11.219Z,27.77
2019-01-04T03:19:39.620Z,28.83
2019-01-04T03:22:08.105Z,27.03
2019-01-04T03:24:36.516Z,33.50
2019-01-04T03:27:04.941Z,29.67
2019-01-04T03:29:33.406Z,25.20
2019-01-04T03:32:01.867Z,23.07
2019-01-04T03:34:30.299Z,24.43
2019-01-04T03:36:58.757Z,25.37
2019-01-04T03:39:27.185Z,25.03
2019-01-04T03:41:55.596Z,23.27
2019-01-04T03:44:24.311Z,23.47
2019-01-04T03:46:52.738Z,24.10
2019-01-04T03:49:21.149Z,21.60
2019-01-04T03:51:49.649Z,20.27
2019-01-04T03:54:18.099Z,20.03
2019-01-04T03:56:46.523Z,19.23
2019-01-04T03:59:14.957Z,17.20
2019-01-04T04:01:43.385Z,19.30
2019-01-04T04:04:11.809Z,20.70
2019-01-04T04:06:40.235Z,20.90
2019-01-04T04:09:08.677Z,20.30
2019-01-04T04:11:37.081Z,19.50
2019-01-04T04:14:05.515Z,19.77
2019-01-04T04:16:33.922Z,20.57
2019-01-04T04:19:02.371Z,19.83
2019-01-04T04:21:30.859Z,21.10
2019-01-04T04:23:59.282Z,19.10
2019-01-04T04:26:27.697Z,19.63
2019-01-04T04:28:56.127Z,19.27
2019-01-04T04:31:24.543Z,20.20
2019-01-04T04:33:52.980Z,20.50
2019-01-04T04:36:21.384Z,21.43
2019-01-04T04:38:49.826Z,21.07
2019-01-04T04:41:18.246Z,20.87
2019-01-04T04:43:46.683Z,20.30
2019-01-04T04:46:15.113Z,19.77
2019-01-04T04:48:43.584Z,20.67
2019-01-04T04:51:11.999Z,22.60
2019-01-04T04:53:40.458Z,21.00
2019-01-04T04:56:08.896Z,22.20
2019-01-04T04:58:37.349Z,20.87
2019-01-04T05:01:05.793Z,21.40
2019-01-04T05:03:34.235Z,22.30
2019-01-04T05:06:02.640Z,23.77
2019-01-04T05:08:31.067Z,21.37
2019-01-04T05:10:59.505Z,22.70
2019-01-04T05:13:27.920Z,25.13
2019-01-04T05:15:56.330Z,24.60
2019-01-04T05:18:24.773Z,29.10
2019-01-04T05:20:53.268Z,22.77
2019-01-04T05:23:21.707Z,20.67
2019-01-04T05:25:50.113Z,23.40
2019-01-04T05:28:18.560Z,24.07
2019-01-04T05:30:46.978Z,22.60
2019-01-04T05:33:15.414Z,24.40
2019-01-04T05:35:43.839Z,23.20
2019-01-04T05:38:12.272Z,25.10
2019-01-04T05:40:40.696Z,24.80
2019-01-04T05:43:09.133Z,24.30
2019-01-04T05:45:37.541Z,23.93
2019-01-04T05:48:05.995Z,23.50
2019-01-04T05:50:34.409Z,22.13
2019-01-04T05:53:02.822Z,24.33
2019-01-04T05:55:31.252Z,23.73
2019-01-04T05:57:59.657Z,22.80
2019-01-04T06:00:28.109Z,25.23
2019-01-04T06:02:56.523Z,24.07
2019-01-04T06:05:24.948Z,24.43
2019-01-04T06:07:53.366Z,24.53
2019-01-04T06:10:21.789Z,23.27
2019-01-04T06:12:50.201Z,24.50
2019-01-04T06:15:18.709Z,22.40
2019-01-04T06:17:47.126Z,23.93
2019-01-04T06:20:15.627Z,24.03
2019-01-04T06:22:44.033Z,23.60
2019-01-04T06:25:12.466Z,23.80
2019-01-04T06:27:40.895Z,24.00
2019-01-04T06:30:09.385Z,23.33
2019-01-04T06:32:37.802Z,24.50
2019-01-04T06:35:06.229Z,23.63
2019-01-04T06:37:34.640Z,23.40
2019-01-04T06:40:03.813Z,24.30
2019-01-04T06:42:32.220Z,24.10
2019-01-04T06:45:00.660Z,24.90
2019-01-04T06:47:29.065Z,21.63
2019-01-04T06:49:57.493Z,25.53
2019-01-04T06:52:25.919Z,25.93
2019-01-04T06:55:19.769Z,22.73
2019-01-04T06:57:48.173Z,22.20
2019-01-04T07:00:16.600Z,23.00
2019-01-04T07:02:45.011Z,22.33
2019-01-04T07:05:13.429Z,23.20
2019-01-04T07:07:41.844Z,23.10
2019-01-04T07:10:10.288Z,22.10
2019-01-04T07:12:38.696Z,21.20
2019-01-04T07:15:07.468Z,20.13
2019-01-04T07:17:35.873Z,23.20
2019-01-04T07:20:05.245Z,22.40
2019-01-04T07:22:33.652Z,22.77
2019-01-04T07:25:02.084Z,24.60
2019-01-04T07:27:30.510Z,24.20
2019-01-04T07:29:58.932Z,21.73
2019-01-04T07:32:27.345Z,22.23
2019-01-04T07:34:55.770Z,24.20
2019-01-04T07:37:24.201Z,22.53
2019-01-04T07:39:52.634Z,22.07
2019-01-04T07:42:21.055Z,22.40
2019-01-04T07:44:49.478Z,26.43
2019-01-04T07:47:17.905Z,23.77
2019-01-04T07:49:46.312Z,25.20
2019-01-04T07:52:14.745Z,25.43
2019-01-04T07:54:43.175Z,23.73
2019-01-04T07:57:11.641Z,23.37
2019-01-04T07:59:40.065Z,26.00
2019-01-04T08:02:30.005Z,24.57
2019-01-04T08:04:58.417Z,20.60
2019-01-04T08:07:26.863Z,23.57
2019-01-04T08:09:55.270Z,22.93
2019-01-04T08:12:23.707Z,24.83
2019-01-04T08:14:52.123Z,25.03
2019-01-04T08:17:20.546Z,24.73
2019-01-04T08:19:48.975Z,22.67
2019-01-04T08:22:17.425Z,24.73
2019-01-04T08:24:45.835Z,25.53
2019-01-04T08:27:14.275Z,22.63
2019-01-04T08:29:42.670Z,22.97
2019-01-04T08:32:11.098Z,21.90
2019-01-04T08:34:39.523Z,23.03
2019-01-04T08:37:07.959Z,23.83
2019-01-04T08:39:36.365Z,24.20
2019-01-04T08:42:04.807Z,22.60
2019-01-04T08:44:33.221Z,24.37
2019-01-04T08:47:01.645Z,24.70
2019-01-04T08:49:30.068Z,24.73
2019-01-04T08:51:58.503Z,24.07
2019-01-04T08:54:26.913Z,22.20
2019-01-04T08:56:55.354Z,24.17
2019-01-04T08:59:23.766Z,20.67
2019-01-04T09:01:52.203Z,20.53
2019-01-04T09:04:20.647Z,19.93
2019-01-04T09:06:49.069Z,20.03
2019-01-04T09:09:17.495Z,19.63
2019-01-04T09:11:45.927Z,20.53
2019-01-04T09:14:14.395Z,20.40
2019-01-04T09:16:42.830Z,21.40
2019-01-04T09:19:11.246Z,21.73
2019-01-04T09:21:39.675Z,21.30
2019-01-04T09:24:08.084Z,20.33
2019-01-04T09:26:36.581Z,21.20
2019-01-04T09:29:05.143Z,21.40
2019-01-04T09:31:33.586Z,25.47
2019-01-04T09:34:02.084Z,20.60
2019-01-04T09:36:30.503Z,23.70
2019-01-04T09:39:03.295Z,21.57
2019-01-04T09:41:33.926Z,23.87
2019-01-04T09:44:28.128Z,20.90
2019-01-04T09:46:56.558Z,25.10
2019-01-04T09:49:24.970Z,25.43
2019-01-04T09:51:53.392Z,23.27
2019-01-04T09:54:21.825Z,29.13
2019-01-04T09:56:50.244Z,27.47
2019-01-04T09:59:18.673Z,26.10
2019-01-04T10:01:47.078Z,24.47
2019-01-04T10:04:15.502Z,21.27
2019-01-04T10:06:43.917Z,22.97
2019-01-04T10:09:12.337Z,21.20
2019-01-04T10:11:40.776Z,18.90
2019-01-04T10:14:09.185Z,24.63
2019-01-04T10:16:39.550Z,23.10
2019-01-04T10:19:07.960Z,22.40
2019-01-04T10:21:36.393Z,22.60
2019-01-04T10:24:06.842Z,24.30
2019-01-04T10:26:35.275Z,28.43
2019-01-04T10:29:03.710Z,20.80
2019-01-04T10:31:32.147Z,21.23
2019-01-04T10:34:00.557Z,21.47
2019-01-04T10:36:29.001Z,18.93
2019-01-04T10:38:57.408Z,20.17
2019-01-04T10:41:25.841Z,20.30
2019-01-04T10:43:54.281Z,21.67
2019-01-04T10:46:22.738Z,21.93
2019-01-04T10:48:51.145Z,27.00
2019-01-04T10:51:19.578Z,20.47
2019-01-04T10:53:47.988Z,39.10
2019-01-04T10:56:16.430Z,24.03
2019-01-04T10:58:45.759Z,19.70
2019-01-04T11:01:14.280Z,19.80
2019-01-04T11:03:43.630Z,18.23
2019-01-04T11:06:12.058Z,18.50
2019-01-04T11:08:42.523Z,20.37
2019-01-04T11:11:10.945Z,26.00
2019-01-04T11:13:39.357Z,17.27
2019-01-04T11:16:07.786Z,20.20
2019-01-04T11:18:36.204Z,17.23
2019-01-04T11:21:05.477Z,16.67
2019-01-04T11:23:54.868Z,18.43
2019-01-04T11:26:29.375Z,18.20
2019-01-04T11:29:23.520Z,17.10
2019-01-04T11:32:03.624Z,16.30
2019-01-04T11:34:37.665Z,17.27
2019-01-04T11:37:17.892Z,18.63
2019-01-04T11:40:00.885Z,19.20
2019-01-04T11:42:35.072Z,18.90
2019-01-04T11:45:09.267Z,17.63
2019-01-04T11:47:46.795Z,18.63
2019-01-04T11:50:37.976Z,17.50
2019-01-04T11:53:09.472Z,20.80
2019-01-04T11:55:37.922Z,20.33
2019-01-04T11:58:06.321Z,17.97
2019-01-04T12:00:34.772Z,16.77
2019-01-04T12:03:03.189Z,14.37
2019-01-04T12:05:31.610Z,14.07
2019-01-04T12:08:00.050Z,13.30
2019-01-04T12:10:28.480Z,15.43
2019-01-04T12:12:56.920Z,15.10
2019-01-04T12:15:25.350Z,13.40
2019-01-04T12:17:53.835Z,14.90
2019-01-04T12:20:22.259Z,14.83
2019-01-04T12:22:50.677Z,15.60
2019-01-04T12:25:19.093Z,15.90
2019-01-04T12:27:47.539Z,16.73
2019-01-04T12:30:16.034Z,14.33
2019-01-04T12:32:44.501Z,14.80
2019-01-04T12:35:12.913Z,13.40
2019-01-04T12:37:41.363Z,13.93
2019-01-04T12:40:09.783Z,15.50
2019-01-04T12:42:38.237Z,15.37
2019-01-04T12:45:07.990Z,16.30
2019-01-04T12:47:36.441Z,15.10
2019-01-04T12:50:07.386Z,14.87
2019-01-04T12:52:35.813Z,15.57
2019-01-04T12:55:05.365Z,13.60
2019-01-04T12:57:33.797Z,13.80
2019-01-04T13:00:02.427Z,13.30
2019-01-04T13:02:30.870Z,12.27
2019-01-04T13:04:59.273Z,15.10
2019-01-04T13:07:27.715Z,14.43
2019-01-04T13:09:56.113Z,15.37
2019-01-04T13:12:24.563Z,13.80
2019-01-04T13:14:52.978Z,12.73
2019-01-04T13:17:21.450Z,15.00
2019-01-04T13:19:49.853Z,13.80
2019-01-04T13:22:18.294Z,14.37
2019-01-04T13:24:46.705Z,15.60
2019-01-04T13:27:15.222Z,16.03
2019-01-04T13:29:43.625Z,13.97
2019-01-04T13:32:12.073Z,18.20
2019-01-04T13:34:40.492Z,16.80
2019-01-04T13:37:09.365Z,14.80
2019-01-04T13:39:37.794Z,15.07
2019-01-04T13:42:06.217Z,14.37
2019-01-04T13:44:34.643Z,16.13
2019-01-04T13:47:03.069Z,15.60
2019-01-04T13:49:31.484Z,15.30
2019-01-04T13:51:59.919Z,15.73
2019-01-04T13:54:28.329Z,16.20
2019-01-04T13:56:56.773Z,16.63
2019-01-04T13:59:25.185Z,20.80
2019-01-04T14:01:54.619Z,16.27
2019-01-04T14:04:23.041Z,14.40
2019-01-04T14:06:51.491Z,17.43
2019-01-04T14:09:19.912Z,17.00
2019-01-04T14:11:48.593Z,17.93
2019-01-04T14:14:17.051Z,15.83
2019-01-04T14:16:46.423Z,17.30
2019-01-04T14:19:14.949Z,21.87
2019-01-04T14:21:43.433Z,18.90
2019-01-04T14:24:11.914Z,15.10
2019-01-04T14:26:40.391Z,14.53
2019-01-04T14:29:08.919Z,16.90
2019-01-04T14:31:37.393Z,15.07
2019-01-04T14:34:05.903Z,13.70
2019-01-04T14:36:34.365Z,15.27
2019-01-04T14:39:04.061Z,15.53
2019-01-04T14:41:32.468Z,12.50
2019-01-04T14:44:00.915Z,14.77
2019-01-04T14:46:29.325Z,18.53
2019-01-04T14:48:57.761Z,12.80
2019-01-04T14:51:26.177Z,14.27
2019-01-04T14:53:54.623Z,12.80
2019-01-04T14:56:23.105Z,14.47
2019-01-04T14:58:51.547Z,15.77
2019-01-04T15:01:20.003Z,15.40
2019-01-04T15:03:48.519Z,16.47
2019-01-04T15:06:16.928Z,14.87
2019-01-04T15:08:45.356Z,14.60
2019-01-04T15:11:13.770Z,18.13
2019-01-04T15:13:42.223Z,16.70
2019-01-04T15:16:10.669Z,15.33
2019-01-04T15:18:39.115Z,17.37
2019-01-04T15:21:09.469Z,16.23
2019-01-04T15:23:37.970Z,14.50
2019-01-04T15:26:06.412Z,15.90
2019-01-04T15:28:34.858Z,15.30
2019-01-04T15:31:03.268Z,14.17
2019-01-04T15:33:32.610Z,13.87
2019-01-04T15:36:01.017Z,12.93
2019-01-04T15:38:29.461Z,15.30
2019-01-04T15:40:57.865Z,16.40
2019-01-04T15:43:26.272Z,15.47
2019-01-04T15:45:54.733Z,14.40
2019-01-04T15:48:23.136Z,13.93
2019-01-04T15:50:51.599Z,17.27
2019-01-04T15:53:20.019Z,15.93
2019-01-04T15:55:48.451Z,14.70
2019-01-04T15:58:16.875Z,15.43
2019-01-04T16:00:45.315Z,15.60
2019-01-04T16:03:13.747Z,15.23
2019-01-04T16:05:42.183Z,15.27
2019-01-04T16:08:10.613Z,17.70
2019-01-04T16:10:39.078Z,14.87
2019-01-04T16:13:07.480Z,15.23
2019-01-04T16:15:36.293Z,14.30
2019-01-04T16:18:05.749Z,14.80
2019-01-04T16:20:34.177Z,13.77
2019-01-04T16:23:02.600Z,13.93
2019-01-04T16:25:31.034Z,16.07
2019-01-04T16:27:59.446Z,17.10
2019-01-04T16:30:27.869Z,16.27
2019-01-04T16:32:56.294Z,17.53
2019-01-04T16:35:24.721Z,19.83
2019-01-04T16:37:53.175Z,16.67
2019-01-04T16:40:21.641Z,33.60
2019-01-04T16:42:50.062Z,16.50
2019-01-04T16:45:18.489Z,18.13
2019-01-04T16:47:46.929Z,18.67
2019-01-04T16:50:15.353Z,20.90
2019-01-04T16:52:43.767Z,15.90
2019-01-04T16:55:12.188Z,17.30
2019-01-04T16:57:40.597Z,19.53
2019-01-04T17:00:10.668Z,91.60
2019-01-04T17:02:39.082Z,37.27
2019-01-04T17:05:07.639Z,93.87
2019-01-04T17:07:36.054Z,53.93
2019-01-04T17:10:05.219Z,21.20
2019-01-04T17:12:33.629Z,17.50
2019-01-04T17:15:02.058Z,15.20
2019-01-04T17:17:30.483Z,16.80
2019-01-04T17:19:58.912Z,15.90
2019-01-04T17:22:27.407Z,15.17
2019-01-04T17:24:55.841Z,19.07
2019-01-04T17:27:24.249Z,14.50
2019-01-04T17:29:52.673Z,16.43
2019-01-04T17:32:21.077Z,16.70
2019-01-04T17:34:49.505Z,16.10
2019-01-04T17:37:17.943Z,18.67
2019-01-04T17:39:46.348Z,18.00
2019-01-04T17:42:14.793Z,17.77
2019-01-04T17:44:43.209Z,24.23
2019-01-04T17:47:11.645Z,17.30
2019-01-04T17:49:40.053Z,16.50
2019-01-04T17:52:08.568Z,15.47
2019-01-04T17:54:36.974Z,14.70
2019-01-04T17:57:05.404Z,15.33
2019-01-04T17:59:33.817Z,15.93
2019-01-04T18:02:02.249Z,14.53
2019-01-04T18:04:30.671Z,15.00
2019-01-04T18:06:59.156Z,16.30
2019-01-04T18:09:27.623Z,16.00
2019-01-04T18:11:56.075Z,17.20
2019-01-04T18:14:24.499Z,17.20
2019-01-04T18:16:52.921Z,16.87
2019-01-04T18:19:21.342Z,15.90
2019-01-04T18:21:49.773Z,16.87
2019-01-04T18:24:18.176Z,17.47
2019-01-04T18:26:47.557Z,16.57
2019-01-04T18:29:15.980Z,16.87
2019-01-04T18:31:44.427Z,24.93
2019-01-04T18:34:12.834Z,17.47
2019-01-04T18:36:41.278Z,19.00
2019-01-04T18:39:09.692Z,14.20
2019-01-04T18:41:38.117Z,14.53
2019-01-04T18:44:06.537Z,17.90
2019-01-04T18:46:34.957Z,15.73
2019-01-04T18:49:03.430Z,19.00
2019-01-04T18:51:32.708Z,25.43
2019-01-04T18:54:01.401Z,17.13
2019-01-04T18:56:29.839Z,15.40
2019-01-04T18:58:58.268Z,11.90
2019-01-04T19:01:26.690Z,13.20
2019-01-04T19:03:55.102Z,15.10
2019-01-04T19:06:23.524Z,19.80
2019-01-04T19:08:51.936Z,21.70
2019-01-04T19:11:20.379Z,15.30
2019-01-04T19:13:48.816Z,12.03
2019-01-04T19:16:17.236Z,15.23
2019-01-04T19:18:45.671Z,13.90
2019-01-04T19:21:14.107Z,16.73
2019-01-04T19:23:42.516Z,14.37
2019-01-04T19:26:10.924Z,16.37
2019-01-04T19:28:39.353Z,13.90
2019-01-04T19:31:07.778Z,13.83
2019-01-04T19:33:36.200Z,12.80
2019-01-04T19:36:04.680Z,14.73
2019-01-04T19:38:33.136Z,13.53
2019-01-04T19:41:01.544Z,13.67
2019-01-04T19:43:30.017Z,14.60
2019-01-04T19:45:58.443Z,11.60
2019-01-04T19:48:26.875Z,13.83
2019-01-04T19:50:55.281Z,15.30
2019-01-04T19:53:23.713Z,13.40
2019-01-04T19:55:52.138Z,14.50
2019-01-04T19:58:20.560Z,14.50
2019-01-04T20:00:48.988Z,16.10
2019-01-04T20:03:17.400Z,13.50
2019-01-04T20:06:21.757Z,15.30
2019-01-04T20:09:03.734Z,15.17
2019-01-04T20:12:07.190Z,14.50
2019-01-04T20:15:16.506Z,23.40
2019-01-04T20:17:52.757Z,14.00
2019-01-04T20:20:25.587Z,16.07
2019-01-04T20:23:13.453Z,16.00
2019-01-04T20:25:45.961Z,15.43
2019-01-04T20:28:22.070Z,16.20
2019-01-04T20:30:54.940Z,16.70
2019-01-04T20:33:41.401Z,16.50
2019-01-04T20:36:17.441Z,16.67
2019-01-04T20:39:03.831Z,16.57
2019-01-04T20:41:33.871Z,18.07
2019-01-04T20:44:03.937Z,21.30
2019-01-04T20:46:49.340Z,19.77
2019-01-04T20:49:28.623Z,18.93
2019-01-04T20:52:04.471Z,17.70
2019-01-04T20:54:37.293Z,21.13
2019-01-04T20:57:25.573Z,20.60
2019-01-04T20:59:58.346Z,19.23
2019-01-04T21:02:28.699Z,18.00
2019-01-04T21:05:07.536Z,26.13
2019-01-04T21:07:43.340Z,21.07
2019-01-04T21:10:16.331Z,21.17
2019-01-04T21:12:46.415Z,21.63
2019-01-04T21:15:16.463Z,27.33
2019-01-04T21:17:58.041Z,32.23
2019-01-04T21:20:40.070Z,23.00
2019-01-04T21:23:26.626Z,22.70
2019-01-04T21:25:56.691Z,21.10
2019-01-04T21:28:41.839Z,22.50
2019-01-04T21:31:17.761Z,32.40
2019-01-04T21:33:47.824Z,28.53
2019-01-04T21:36:20.363Z,23.00
2019-01-04T21:39:06.510Z,21.07
2019-01-04T21:41:54.621Z,22.07
2019-01-04T21:44:33.868Z,19.40
2019-01-04T21:47:20.354Z,21.20
2019-01-04T21:49:50.438Z,19.83
2019-01-04T21:52:26.701Z,22.50
2019-01-04T21:55:05.999Z,19.77
2019-01-04T21:57:45.103Z,21.33
2019-01-04T22:00:18.253Z,20.60
2019-01-04T22:02:50.740Z,20.57
2019-01-04T22:05:37.392Z,24.87
2019-01-04T22:08:23.932Z,23.53
2019-01-04T22:11:00.022Z,22.13
2019-01-04T22:13:47.854Z,18.67
2019-01-04T22:16:23.925Z,20.87
2019-01-04T22:19:03.314Z,20.80
2019-01-04T22:21:33.368Z,21.27
2019-01-04T22:24:12.179Z,20.13
2019-01-04T22:26:57.608Z,19.73
2019-01-04T22:29:36.629Z,16.37
2019-01-04T22:32:09.639Z,18.13
2019-01-04T22:34:51.753Z,16.83
2019-01-04T22:37:38.179Z,17.23
2019-01-04T22:40:08.538Z,17.07
2019-01-04T22:42:38.585Z,18.10
2019-01-04T22:45:11.163Z,17.73
2019-01-04T22:47:53.484Z,16.10
2019-01-04T22:50:26.392Z,17.50
2019-01-04T22:53:11.492Z,18.63
2019-01-04T22:55:41.556Z,17.63
2019-01-04T22:58:20.630Z,15.00
2019-01-04T23:00:58.251Z,15.70
2019-01-04T23:03:37.147Z,15.83
2019-01-04T23:06:09.892Z,14.83
2019-01-04T23:08:49.066Z,14.80
2019-01-04T23:11:19.122Z,14.70
2019-01-04T23:13:49.208Z,14.83
2019-01-04T23:16:25.023Z,16.07
2019-01-04T23:18:55.107Z,16.10
2019-01-04T23:21:59.321Z,15.97
2019-01-04T23:24:29.391Z,16.13
2019-01-04T23:27:11.853Z,14.97
2019-01-04T23:29:44.727Z,14.93
2019-01-04T23:32:31.243Z,17.00
2019-01-04T23:35:01.322Z,15.80
2019-01-04T23:37:37.619Z,15.63
2019-01-04T23:40:17.466Z,16.10
2019-01-04T23:42:53.359Z,14.67
2019-01-04T23:45:23.439Z,15.10
2019-01-04T23:47:56.295Z,14.30
2019-01-04T23:50:32.069Z,13.83
2019-01-04T23:53:02.190Z,14.17
2019-01-04T23:55:32.259Z,11.97
2019-01-04T23:58:18.469Z,14.47
